Nouadhibou, Mauritania
Current Conditions -  °F | °C
As of 1:00 PM on Wednesday 22 Oct 2014 (Local Time) from GQPP Reporting Station
Clear Clear  
Wind Chill: 93°   Ceiling: Unl
Heat Index: 94°   Visibility: 5mi
Dew Point: 63°   Wind: 7mph
Humidity: 36%   Direction: 280°W
Pressure: 29.94"   Gusts: NA
Location:  20.96°N, 17.04°W
Report Text: GQPP 221300Z 28006KT 8000 NSC 34/17 Q1014 NOSIG
Loading
Personal Weather Stations






























Interactive Weather Map
Tropical Storm Tracking
New forecast layout! Learn more

10-Day Weather Forecast

Advertisements
Track Severe Weather on mobile